sensor_id;sensor_type;location;lat;lon;timestamp;P1;durP1;ratioP1;P2;durP2;ratioP2
57395;SDS011;43222;52.912;6.940;2023-05-07T00:01:59;23.25;;;19.17;;
57395;SDS011;43222;52.912;6.940;2023-05-07T00:04:25;25.13;;;19.23;;
57395;SDS011;43222;52.912;6.940;2023-05-07T00:06:51;23.75;;;18.95;;
57395;SDS011;43222;52.912;6.940;2023-05-07T00:09:17;26.52;;;20.00;;
57395;SDS011;43222;52.912;6.940;2023-05-07T00:11:43;24.17;;;20.52;;
57395;SDS011;43222;52.912;6.940;2023-05-07T00:14:10;26.40;;;20.60;;
57395;SDS011;43222;52.912;6.940;2023-05-07T00:16:36;23.25;;;20.40;;
57395;SDS011;43222;52.912;6.940;2023-05-07T00:19:02;23.90;;;19.58;;
57395;SDS011;43222;52.912;6.940;2023-05-07T00:21:28;24.33;;;19.75;;
57395;SDS011;43222;52.912;6.940;2023-05-07T00:23:55;24.83;;;20.55;;
57395;SDS011;43222;52.912;6.940;2023-05-07T00:26:21;25.23;;;19.50;;
57395;SDS011;43222;52.912;6.940;2023-05-07T00:28:47;23.10;;;19.90;;
57395;SDS011;43222;52.912;6.940;2023-05-07T00:31:13;30.45;;;21.25;;
57395;SDS011;43222;52.912;6.940;2023-05-07T00:33:39;24.85;;;20.80;;
57395;SDS011;43222;52.912;6.940;2023-05-07T00:36:06;24.27;;;20.27;;
57395;SDS011;43222;52.912;6.940;2023-05-07T00:38:32;25.33;;;21.33;;
57395;SDS011;43222;52.912;6.940;2023-05-07T00:40:58;25.02;;;21.05;;
57395;SDS011;43222;52.912;6.940;2023-05-07T00:43:24;24.20;;;20.65;;
57395;SDS011;43222;52.912;6.940;2023-05-07T00:45:50;23.88;;;20.42;;
57395;SDS011;43222;52.912;6.940;2023-05-07T00:48:16;23.48;;;20.98;;
57395;SDS011;43222;52.912;6.940;2023-05-07T00:50:43;23.45;;;20.92;;
57395;SDS011;43222;52.912;6.940;2023-05-07T00:53:09;25.13;;;21.80;;
57395;SDS011;43222;52.912;6.940;2023-05-07T00:55:35;25.45;;;21.85;;
57395;SDS011;43222;52.912;6.940;2023-05-07T00:58:01;26.52;;;21.35;;
57395;SDS011;43222;52.912;6.940;2023-05-07T01:00:28;24.60;;;21.27;;
57395;SDS011;43222;52.912;6.940;2023-05-07T01:02:54;25.35;;;22.25;;
57395;SDS011;43222;52.912;6.940;2023-05-07T01:05:20;25.58;;;22.52;;
57395;SDS011;43222;52.912;6.940;2023-05-07T01:07:48;28.13;;;23.65;;
57395;SDS011;43222;52.912;6.940;2023-05-07T01:10:14;28.30;;;23.95;;
57395;SDS011;43222;52.912;6.940;2023-05-07T01:12:41;29.20;;;24.00;;
57395;SDS011;43222;52.912;6.940;2023-05-07T01:15:08;28.92;;;24.85;;
57395;SDS011;43222;52.912;6.940;2023-05-07T01:17:35;29.77;;;24.23;;
57395;SDS011;43222;52.912;6.940;2023-05-07T01:20:01;29.25;;;24.50;;
57395;SDS011;43222;52.912;6.940;2023-05-07T01:22:36;32.08;;;25.67;;
57395;SDS011;43222;52.912;6.940;2023-05-07T01:25:03;32.05;;;26.17;;
57395;SDS011;43222;52.912;6.940;2023-05-07T01:27:29;29.75;;;25.40;;
57395;SDS011;43222;52.912;6.940;2023-05-07T01:29:55;31.20;;;26.90;;
57395;SDS011;43222;52.912;6.940;2023-05-07T01:32:24;36.33;;;27.52;;
57395;SDS011;43222;52.912;6.940;2023-05-07T01:34:51;32.33;;;27.38;;
57395;SDS011;43222;52.912;6.940;2023-05-07T01:37:18;30.73;;;25.83;;
57395;SDS011;43222;52.912;6.940;2023-05-07T01:39:45;31.75;;;27.45;;
57395;SDS011;43222;52.912;6.940;2023-05-07T01:42:12;31.70;;;26.33;;
57395;SDS011;43222;52.912;6.940;2023-05-07T01:44:38;31.17;;;26.33;;
57395;SDS011;43222;52.912;6.940;2023-05-07T01:47:04;32.83;;;27.65;;
57395;SDS011;43222;52.912;6.940;2023-05-07T01:49:31;33.05;;;27.98;;
57395;SDS011;43222;52.912;6.940;2023-05-07T01:51:57;33.90;;;28.23;;
57395;SDS011;43222;52.912;6.940;2023-05-07T01:54:27;34.88;;;27.73;;
57395;SDS011;43222;52.912;6.940;2023-05-07T01:56:53;33.40;;;27.50;;
57395;SDS011;43222;52.912;6.940;2023-05-07T01:59:19;33.25;;;29.52;;
57395;SDS011;43222;52.912;6.940;2023-05-07T02:01:45;36.45;;;30.42;;
57395;SDS011;43222;52.912;6.940;2023-05-07T02:04:12;37.80;;;30.98;;
57395;SDS011;43222;52.912;6.940;2023-05-07T02:06:38;37.85;;;32.38;;
57395;SDS011;43222;52.912;6.940;2023-05-07T02:09:04;41.97;;;32.50;;
57395;SDS011;43222;52.912;6.940;2023-05-07T02:11:30;39.17;;;32.30;;
57395;SDS011;43222;52.912;6.940;2023-05-07T02:13:56;40.58;;;33.30;;
57395;SDS011;43222;52.912;6.940;2023-05-07T02:16:22;45.17;;;33.47;;
57395;SDS011;43222;52.912;6.940;2023-05-07T02:18:49;43.42;;;33.90;;
57395;SDS011;43222;52.912;6.940;2023-05-07T02:21:15;42.75;;;34.67;;
57395;SDS011;43222;52.912;6.940;2023-05-07T02:23:41;44.38;;;34.78;;
57395;SDS011;43222;52.912;6.940;2023-05-07T02:26:07;43.50;;;35.00;;
57395;SDS011;43222;52.912;6.940;2023-05-07T02:28:33;43.78;;;34.88;;
57395;SDS011;43222;52.912;6.940;2023-05-07T02:31:05;44.33;;;35.72;;
57395;SDS011;43222;52.912;6.940;2023-05-07T02:33:31;46.38;;;35.78;;
57395;SDS011;43222;52.912;6.940;2023-05-07T02:36:08;45.42;;;36.80;;
57395;SDS011;43222;52.912;6.940;2023-05-07T02:38:35;47.78;;;36.05;;
57395;SDS011;43222;52.912;6.940;2023-05-07T02:41:01;46.30;;;35.42;;
57395;SDS011;43222;52.912;6.940;2023-05-07T02:43:27;46.53;;;35.75;;
57395;SDS011;43222;52.912;6.940;2023-05-07T02:46:06;46.70;;;36.72;;
57395;SDS011;43222;52.912;6.940;2023-05-07T02:48:33;46.75;;;36.38;;
57395;SDS011;43222;52.912;6.940;2023-05-07T02:50:59;45.03;;;36.10;;
57395;SDS011;43222;52.912;6.940;2023-05-07T02:53:25;47.05;;;36.45;;
57395;SDS011;43222;52.912;6.940;2023-05-07T02:55:55;47.22;;;36.25;;
57395;SDS011;43222;52.912;6.940;2023-05-07T02:58:22;48.22;;;38.10;;
57395;SDS011;43222;52.912;6.940;2023-05-07T03:00:48;47.53;;;36.20;;
57395;SDS011;43222;52.912;6.940;2023-05-07T03:03:14;47.60;;;36.63;;
57395;SDS011;43222;52.912;6.940;2023-05-07T03:05:40;45.00;;;35.75;;
57395;SDS011;43222;52.912;6.940;2023-05-07T03:08:07;51.88;;;36.67;;
57395;SDS011;43222;52.912;6.940;2023-05-07T03:10:33;50.03;;;36.80;;
57395;SDS011;43222;52.912;6.940;2023-05-07T03:12:59;46.72;;;36.00;;
57395;SDS011;43222;52.912;6.940;2023-05-07T03:15:25;50.97;;;38.35;;
57395;SDS011;43222;52.912;6.940;2023-05-07T03:17:51;46.20;;;35.88;;
57395;SDS011;43222;52.912;6.940;2023-05-07T03:20:17;46.00;;;35.22;;
57395;SDS011;43222;52.912;6.940;2023-05-07T03:22:43;45.67;;;35.88;;
57395;SDS011;43222;52.912;6.940;2023-05-07T03:25:09;46.58;;;34.72;;
57395;SDS011;43222;52.912;6.940;2023-05-07T03:27:35;43.70;;;34.22;;
57395;SDS011;43222;52.912;6.940;2023-05-07T03:30:02;47.40;;;34.15;;
57395;SDS011;43222;52.912;6.940;2023-05-07T03:32:28;43.35;;;34.15;;
57395;SDS011;43222;52.912;6.940;2023-05-07T03:34:54;40.72;;;32.90;;
57395;SDS011;43222;52.912;6.940;2023-05-07T03:37:20;42.35;;;34.08;;
57395;SDS011;43222;52.912;6.940;2023-05-07T03:39:47;42.13;;;34.17;;
57395;SDS011;43222;52.912;6.940;2023-05-07T03:42:13;41.30;;;32.35;;
57395;SDS011;43222;52.912;6.940;2023-05-07T03:44:39;36.67;;;31.88;;
57395;SDS011;43222;52.912;6.940;2023-05-07T03:47:05;38.28;;;32.08;;
57395;SDS011;43222;52.912;6.940;2023-05-07T03:49:31;40.13;;;31.52;;
57395;SDS011;43222;52.912;6.940;2023-05-07T03:51:57;41.35;;;33.08;;
57395;SDS011;43222;52.912;6.940;2023-05-07T03:54:24;39.83;;;31.40;;
57395;SDS011;43222;52.912;6.940;2023-05-07T03:56:50;42.85;;;32.70;;
57395;SDS011;43222;52.912;6.940;2023-05-07T03:59:16;38.63;;;31.65;;
57395;SDS011;43222;52.912;6.940;2023-05-07T04:01:42;36.80;;;30.40;;
57395;SDS011;43222;52.912;6.940;2023-05-07T04:04:08;37.28;;;31.40;;
57395;SDS011;43222;52.912;6.940;2023-05-07T04:06:34;37.72;;;30.48;;
57395;SDS011;43222;52.912;6.940;2023-05-07T04:09:00;38.97;;;31.35;;
57395;SDS011;43222;52.912;6.940;2023-05-07T04:11:26;36.22;;;29.73;;
57395;SDS011;43222;52.912;6.940;2023-05-07T04:13:52;38.05;;;31.38;;
57395;SDS011;43222;52.912;6.940;2023-05-07T04:16:18;36.13;;;29.45;;
57395;SDS011;43222;52.912;6.940;2023-05-07T04:18:44;35.15;;;30.33;;
57395;SDS011;43222;52.912;6.940;2023-05-07T04:21:20;34.42;;;28.23;;
57395;SDS011;43222;52.912;6.940;2023-05-07T04:23:46;34.55;;;28.02;;
57395;SDS011;43222;52.912;6.940;2023-05-07T04:26:13;35.63;;;29.63;;
57395;SDS011;43222;52.912;6.940;2023-05-07T04:28:39;35.60;;;29.33;;
57395;SDS011;43222;52.912;6.940;2023-05-07T04:31:06;32.88;;;27.90;;
57395;SDS011;43222;52.912;6.940;2023-05-07T04:33:32;32.33;;;27.85;;
57395;SDS011;43222;52.912;6.940;2023-05-07T04:35:58;33.75;;;27.55;;
57395;SDS011;43222;52.912;6.940;2023-05-07T04:38:30;35.47;;;28.33;;
57395;SDS011;43222;52.912;6.940;2023-05-07T04:40:57;31.35;;;27.95;;
57395;SDS011;43222;52.912;6.940;2023-05-07T04:43:23;32.78;;;27.27;;
57395;SDS011;43222;52.912;6.940;2023-05-07T04:45:50;30.45;;;26.25;;
57395;SDS011;43222;52.912;6.940;2023-05-07T04:48:17;33.05;;;27.70;;
57395;SDS011;43222;52.912;6.940;2023-05-07T04:50:48;32.08;;;26.65;;
57395;SDS011;43222;52.912;6.940;2023-05-07T04:53:15;32.25;;;27.63;;
57395;SDS011;43222;52.912;6.940;2023-05-07T04:55:41;30.40;;;26.83;;
57395;SDS011;43222;52.912;6.940;2023-05-07T04:58:07;30.77;;;26.70;;
57395;SDS011;43222;52.912;6.940;2023-05-07T05:00:33;32.28;;;27.45;;
57395;SDS011;43222;52.912;6.940;2023-05-07T05:03:00;30.58;;;26.10;;
57395;SDS011;43222;52.912;6.940;2023-05-07T05:05:26;32.45;;;27.27;;
57395;SDS011;43222;52.912;6.940;2023-05-07T05:07:52;31.60;;;27.17;;
57395;SDS011;43222;52.912;6.940;2023-05-07T05:10:18;33.33;;;27.40;;
57395;SDS011;43222;52.912;6.940;2023-05-07T05:12:44;30.63;;;26.67;;
57395;SDS011;43222;52.912;6.940;2023-05-07T05:15:11;31.88;;;25.75;;
57395;SDS011;43222;52.912;6.940;2023-05-07T05:17:37;32.13;;;28.10;;
57395;SDS011;43222;52.912;6.940;2023-05-07T05:20:04;31.63;;;26.88;;
57395;SDS011;43222;52.912;6.940;2023-05-07T05:22:30;33.40;;;27.25;;
57395;SDS011;43222;52.912;6.940;2023-05-07T05:24:57;29.63;;;25.48;;
57395;SDS011;43222;52.912;6.940;2023-05-07T05:27:23;29.35;;;25.58;;
57395;SDS011;43222;52.912;6.940;2023-05-07T05:29:49;29.25;;;25.83;;
57395;SDS011;43222;52.912;6.940;2023-05-07T05:32:15;32.30;;;27.35;;
57395;SDS011;43222;52.912;6.940;2023-05-07T05:34:41;31.00;;;27.25;;
57395;SDS011;43222;52.912;6.940;2023-05-07T05:37:07;32.13;;;26.20;;
57395;SDS011;43222;52.912;6.940;2023-05-07T05:39:33;31.05;;;27.05;;
57395;SDS011;43222;52.912;6.940;2023-05-07T05:41:59;32.03;;;26.27;;
57395;SDS011;43222;52.912;6.940;2023-05-07T05:44:25;31.98;;;28.30;;
57395;SDS011;43222;52.912;6.940;2023-05-07T05:46:51;31.45;;;27.67;;
57395;SDS011;43222;52.912;6.940;2023-05-07T05:49:19;31.30;;;26.73;;
57395;SDS011;43222;52.912;6.940;2023-05-07T05:51:45;35.58;;;28.13;;
57395;SDS011;43222;52.912;6.940;2023-05-07T05:54:11;30.00;;;26.80;;
57395;SDS011;43222;52.912;6.940;2023-05-07T05:56:37;32.80;;;26.27;;
57395;SDS011;43222;52.912;6.940;2023-05-07T05:59:03;29.90;;;26.70;;
57395;SDS011;43222;52.912;6.940;2023-05-07T06:01:29;33.22;;;26.63;;
57395;SDS011;43222;52.912;6.940;2023-05-07T06:03:55;32.75;;;27.25;;
57395;SDS011;43222;52.912;6.940;2023-05-07T06:06:21;30.45;;;26.58;;
57395;SDS011;43222;52.912;6.940;2023-05-07T06:08:48;32.05;;;27.08;;
57395;SDS011;43222;52.912;6.940;2023-05-07T06:11:13;35.15;;;28.38;;
57395;SDS011;43222;52.912;6.940;2023-05-07T06:13:40;31.88;;;27.83;;
57395;SDS011;43222;52.912;6.940;2023-05-07T06:16:06;32.42;;;27.38;;
57395;SDS011;43222;52.912;6.940;2023-05-07T06:18:32;32.60;;;27.45;;
57395;SDS011;43222;52.912;6.940;2023-05-07T06:21:00;33.17;;;28.15;;
57395;SDS011;43222;52.912;6.940;2023-05-07T06:23:27;31.63;;;27.98;;
57395;SDS011;43222;52.912;6.940;2023-05-07T06:25:53;34.95;;;27.33;;
57395;SDS011;43222;52.912;6.940;2023-05-07T06:28:19;32.13;;;26.98;;
57395;SDS011;43222;52.912;6.940;2023-05-07T06:30:45;33.22;;;27.88;;
57395;SDS011;43222;52.912;6.940;2023-05-07T06:33:11;32.05;;;26.25;;
57395;SDS011;43222;52.912;6.940;2023-05-07T06:35:37;31.67;;;26.95;;
57395;SDS011;43222;52.912;6.940;2023-05-07T06:38:03;34.30;;;28.08;;
57395;SDS011;43222;52.912;6.940;2023-05-07T06:40:29;32.50;;;27.83;;
57395;SDS011;43222;52.912;6.940;2023-05-07T06:42:55;33.40;;;28.42;;
57395;SDS011;43222;52.912;6.940;2023-05-07T06:45:21;32.53;;;29.00;;
57395;SDS011;43222;52.912;6.940;2023-05-07T06:47:47;34.13;;;28.35;;
57395;SDS011;43222;52.912;6.940;2023-05-07T06:50:13;32.63;;;28.67;;
57395;SDS011;43222;52.912;6.940;2023-05-07T06:52:41;38.75;;;30.85;;
57395;SDS011;43222;52.912;6.940;2023-05-07T06:55:08;33.05;;;28.40;;
57395;SDS011;43222;52.912;6.940;2023-05-07T06:57:34;35.55;;;29.33;;
57395;SDS011;43222;52.912;6.940;2023-05-07T07:00:00;36.55;;;30.83;;
57395;SDS011;43222;52.912;6.940;2023-05-07T07:02:26;34.17;;;29.60;;
57395;SDS011;43222;52.912;6.940;2023-05-07T07:04:52;34.95;;;29.55;;
57395;SDS011;43222;52.912;6.940;2023-05-07T07:07:18;35.78;;;29.15;;
57395;SDS011;43222;52.912;6.940;2023-05-07T07:09:44;37.10;;;29.35;;
57395;SDS011;43222;52.912;6.940;2023-05-07T07:12:10;36.53;;;28.98;;
57395;SDS011;43222;52.912;6.940;2023-05-07T07:14:36;32.22;;;28.58;;
57395;SDS011;43222;52.912;6.940;2023-05-07T07:17:02;35.45;;;29.65;;
57395;SDS011;43222;52.912;6.940;2023-05-07T07:19:30;33.67;;;29.25;;
57395;SDS011;43222;52.912;6.940;2023-05-07T07:21:56;34.05;;;30.05;;
57395;SDS011;43222;52.912;6.940;2023-05-07T07:24:22;37.75;;;30.63;;
57395;SDS011;43222;52.912;6.940;2023-05-07T07:26:48;33.75;;;29.92;;
57395;SDS011;43222;52.912;6.940;2023-05-07T07:29:14;35.65;;;30.48;;
57395;SDS011;43222;52.912;6.940;2023-05-07T07:31:40;33.35;;;29.17;;
57395;SDS011;43222;52.912;6.940;2023-05-07T07:34:06;36.83;;;30.00;;
57395;SDS011;43222;52.912;6.940;2023-05-07T07:36:32;36.10;;;29.98;;
57395;SDS011;43222;52.912;6.940;2023-05-07T07:38:58;31.67;;;28.20;;
57395;SDS011;43222;52.912;6.940;2023-05-07T07:41:24;33.05;;;28.73;;
57395;SDS011;43222;52.912;6.940;2023-05-07T07:43:50;34.30;;;28.92;;
57395;SDS011;43222;52.912;6.940;2023-05-07T07:46:16;35.38;;;30.30;;
57395;SDS011;43222;52.912;6.940;2023-05-07T07:48:42;35.15;;;30.02;;
57395;SDS011;43222;52.912;6.940;2023-05-07T07:51:08;33.42;;;29.02;;
57395;SDS011;43222;52.912;6.940;2023-05-07T07:53:34;32.40;;;28.58;;
57395;SDS011;43222;52.912;6.940;2023-05-07T07:56:00;32.05;;;28.05;;
57395;SDS011;43222;52.912;6.940;2023-05-07T07:58:26;34.33;;;28.90;;
57395;SDS011;43222;52.912;6.940;2023-05-07T08:00:52;34.13;;;27.13;;
57395;SDS011;43222;52.912;6.940;2023-05-07T08:03:20;32.55;;;27.67;;
57395;SDS011;43222;52.912;6.940;2023-05-07T08:05:46;32.60;;;27.42;;
57395;SDS011;43222;52.912;6.940;2023-05-07T08:08:14;31.42;;;27.10;;
57395;SDS011;43222;52.912;6.940;2023-05-07T08:10:40;29.02;;;25.88;;
57395;SDS011;43222;52.912;6.940;2023-05-07T08:13:06;31.55;;;27.50;;
57395;SDS011;43222;52.912;6.940;2023-05-07T08:15:32;29.65;;;26.42;;
57395;SDS011;43222;52.912;6.940;2023-05-07T08:17:58;29.10;;;26.00;;
57395;SDS011;43222;52.912;6.940;2023-05-07T08:20:28;28.92;;;25.40;;
57395;SDS011;43222;52.912;6.940;2023-05-07T08:22:54;29.10;;;25.70;;
57395;SDS011;43222;52.912;6.940;2023-05-07T08:25:20;29.55;;;25.65;;
57395;SDS011;43222;52.912;6.940;2023-05-07T08:27:46;27.27;;;24.38;;
57395;SDS011;43222;52.912;6.940;2023-05-07T08:30:12;27.75;;;24.75;;
57395;SDS011;43222;52.912;6.940;2023-05-07T08:32:39;27.98;;;23.90;;
57395;SDS011;43222;52.912;6.940;2023-05-07T08:35:05;25.38;;;22.63;;
57395;SDS011;43222;52.912;6.940;2023-05-07T08:37:31;25.85;;;22.85;;
57395;SDS011;43222;52.912;6.940;2023-05-07T08:39:57;25.40;;;22.65;;
57395;SDS011;43222;52.912;6.940;2023-05-07T08:42:23;24.92;;;22.17;;
57395;SDS011;43222;52.912;6.940;2023-05-07T08:44:52;24.75;;;22.08;;
57395;SDS011;43222;52.912;6.940;2023-05-07T08:47:20;24.17;;;21.58;;
57395;SDS011;43222;52.912;6.940;2023-05-07T08:49:48;24.65;;;21.95;;
57395;SDS011;43222;52.912;6.940;2023-05-07T08:52:15;24.13;;;21.52;;
57395;SDS011;43222;52.912;6.940;2023-05-07T08:54:41;23.02;;;20.58;;
57395;SDS011;43222;52.912;6.940;2023-05-07T08:57:07;22.95;;;20.38;;
57395;SDS011;43222;52.912;6.940;2023-05-07T08:59:34;23.17;;;20.77;;
57395;SDS011;43222;52.912;6.940;2023-05-07T09:02:01;26.65;;;20.58;;
57395;SDS011;43222;52.912;6.940;2023-05-07T09:04:27;23.38;;;20.88;;
57395;SDS011;43222;52.912;6.940;2023-05-07T09:06:54;23.73;;;20.88;;
57395;SDS011;43222;52.912;6.940;2023-05-07T09:09:21;22.27;;;19.52;;
57395;SDS011;43222;52.912;6.940;2023-05-07T09:11:47;23.55;;;19.80;;
57395;SDS011;43222;52.912;6.940;2023-05-07T09:14:13;22.90;;;19.90;;
57395;SDS011;43222;52.912;6.940;2023-05-07T09:16:39;22.48;;;18.85;;
57395;SDS011;43222;52.912;6.940;2023-05-07T09:19:05;21.90;;;19.65;;
57395;SDS011;43222;52.912;6.940;2023-05-07T09:21:32;21.55;;;19.30;;
57395;SDS011;43222;52.912;6.940;2023-05-07T09:23:58;20.85;;;18.67;;
57395;SDS011;43222;52.912;6.940;2023-05-07T09:26:24;22.23;;;19.48;;
57395;SDS011;43222;52.912;6.940;2023-05-07T09:28:50;23.42;;;18.55;;
57395;SDS011;43222;52.912;6.940;2023-05-07T09:31:17;21.98;;;19.38;;
57395;SDS011;43222;52.912;6.940;2023-05-07T09:33:43;21.33;;;19.15;;
57395;SDS011;43222;52.912;6.940;2023-05-07T09:36:09;21.73;;;19.42;;
57395;SDS011;43222;52.912;6.940;2023-05-07T09:38:36;20.55;;;18.45;;
57395;SDS011;43222;52.912;6.940;2023-05-07T09:41:07;22.13;;;19.17;;
57395;SDS011;43222;52.912;6.940;2023-05-07T09:43:34;21.25;;;18.98;;
57395;SDS011;43222;52.912;6.940;2023-05-07T09:46:02;20.38;;;18.10;;
57395;SDS011;43222;52.912;6.940;2023-05-07T09:48:29;20.83;;;18.67;;
57395;SDS011;43222;52.912;6.940;2023-05-07T09:50:55;21.80;;;19.00;;
57395;SDS011;43222;52.912;6.940;2023-05-07T09:53:23;21.45;;;19.15;;
57395;SDS011;43222;52.912;6.940;2023-05-07T09:55:50;20.27;;;18.17;;
57395;SDS011;43222;52.912;6.940;2023-05-07T09:58:17;20.88;;;18.77;;
57395;SDS011;43222;52.912;6.940;2023-05-07T10:00:44;20.42;;;18.23;;
57395;SDS011;43222;52.912;6.940;2023-05-07T10:03:11;21.48;;;19.17;;
57395;SDS011;43222;52.912;6.940;2023-05-07T10:05:39;20.23;;;18.13;;
57395;SDS011;43222;52.912;6.940;2023-05-07T10:08:06;20.20;;;18.10;;
57395;SDS011;43222;52.912;6.940;2023-05-07T10:10:32;20.55;;;18.35;;
57395;SDS011;43222;52.912;6.940;2023-05-07T10:12:59;20.77;;;18.70;;
57395;SDS011;43222;52.912;6.940;2023-05-07T10:15:26;20.17;;;18.08;;
57395;SDS011;43222;52.912;6.940;2023-05-07T10:17:53;19.42;;;17.52;;
57395;SDS011;43222;52.912;6.940;2023-05-07T10:20:20;19.85;;;17.85;;
57395;SDS011;43222;52.912;6.940;2023-05-07T10:22:47;20.02;;;17.85;;
57395;SDS011;43222;52.912;6.940;2023-05-07T10:27:46;20.58;;;18.38;;
57395;SDS011;43222;52.912;6.940;2023-05-07T10:30:16;20.58;;;18.50;;
57395;SDS011;43222;52.912;6.940;2023-05-07T10:32:47;20.73;;;18.63;;
57395;SDS011;43222;52.912;6.940;2023-05-07T10:35:14;20.42;;;18.23;;
57395;SDS011;43222;52.912;6.940;2023-05-07T10:37:42;21.60;;;19.23;;
57395;SDS011;43222;52.912;6.940;2023-05-07T10:40:09;19.75;;;17.75;;
57395;SDS011;43222;52.912;6.940;2023-05-07T10:42:35;20.73;;;18.27;;
57395;SDS011;43222;52.912;6.940;2023-05-07T10:45:11;20.65;;;18.02;;
57395;SDS011;43222;52.912;6.940;2023-05-07T10:48:00;20.23;;;18.23;;
57395;SDS011;43222;52.912;6.940;2023-05-07T10:50:24;20.20;;;18.10;;
57395;SDS011;43222;52.912;6.940;2023-05-07T10:55:35;20.90;;;18.33;;
57395;SDS011;43222;52.912;6.940;2023-05-07T11:00:46;18.63;;;16.67;;
57395;SDS011;43222;52.912;6.940;2023-05-07T11:03:12;19.48;;;17.45;;
57395;SDS011;43222;52.912;6.940;2023-05-07T11:05:39;19.98;;;17.88;;
57395;SDS011;43222;52.912;6.940;2023-05-07T11:08:06;18.92;;;17.02;;
57395;SDS011;43222;52.912;6.940;2023-05-07T11:13:14;19.40;;;17.45;;
57395;SDS011;43222;52.912;6.940;2023-05-07T11:15:44;19.58;;;17.58;;
57395;SDS011;43222;52.912;6.940;2023-05-07T11:18:11;20.13;;;17.60;;
57395;SDS011;43222;52.912;6.940;2023-05-07T11:25:58;19.80;;;17.80;;
57395;SDS011;43222;52.912;6.940;2023-05-07T11:28:27;19.65;;;17.60;;
57395;SDS011;43222;52.912;6.940;2023-05-07T11:30:53;21.65;;;18.30;;
57395;SDS011;43222;52.912;6.940;2023-05-07T11:33:19;20.48;;;18.38;;
57395;SDS011;43222;52.912;6.940;2023-05-07T11:35:45;19.58;;;17.48;;
57395;SDS011;43222;52.912;6.940;2023-05-07T11:38:12;20.02;;;17.80;;
57395;SDS011;43222;52.912;6.940;2023-05-07T11:40:48;19.92;;;17.52;;
57395;SDS011;43222;52.912;6.940;2023-05-07T11:43:14;18.65;;;16.75;;
57395;SDS011;43222;52.912;6.940;2023-05-07T11:45:40;18.80;;;16.90;;
57395;SDS011;43222;52.912;6.940;2023-05-07T11:48:06;25.63;;;17.58;;
57395;SDS011;43222;52.912;6.940;2023-05-07T11:50:33;18.60;;;16.38;;
57395;SDS011;43222;52.912;6.940;2023-05-07T11:52:58;19.08;;;17.13;;
57395;SDS011;43222;52.912;6.940;2023-05-07T11:55:25;18.58;;;16.67;;
57395;SDS011;43222;52.912;6.940;2023-05-07T11:57:51;19.42;;;17.42;;
57395;SDS011;43222;52.912;6.940;2023-05-07T12:00:17;18.65;;;16.77;;
57395;SDS011;43222;52.912;6.940;2023-05-07T12:02:44;19.15;;;17.35;;
57395;SDS011;43222;52.912;6.940;2023-05-07T12:05:11;19.13;;;17.23;;
57395;SDS011;43222;52.912;6.940;2023-05-07T12:07:37;18.35;;;16.55;;
57395;SDS011;43222;52.912;6.940;2023-05-07T12:10:06;18.33;;;16.52;;
57395;SDS011;43222;52.912;6.940;2023-05-07T12:12:39;18.98;;;17.17;;
57395;SDS011;43222;52.912;6.940;2023-05-07T12:15:06;18.52;;;16.73;;
57395;SDS011;43222;52.912;6.940;2023-05-07T12:17:33;18.77;;;16.88;;
57395;SDS011;43222;52.912;6.940;2023-05-07T12:19:59;18.92;;;16.90;;
57395;SDS011;43222;52.912;6.940;2023-05-07T12:22:26;18.05;;;16.23;;
57395;SDS011;43222;52.912;6.940;2023-05-07T12:24:58;17.33;;;15.60;;
57395;SDS011;43222;52.912;6.940;2023-05-07T12:27:25;17.48;;;15.77;;
57395;SDS011;43222;52.912;6.940;2023-05-07T12:29:51;16.35;;;14.75;;
57395;SDS011;43222;52.912;6.940;2023-05-07T12:32:18;16.13;;;14.52;;
57395;SDS011;43222;52.912;6.940;2023-05-07T12:34:44;16.42;;;14.73;;
57395;SDS011;43222;52.912;6.940;2023-05-07T12:37:10;15.82;;;14.20;;
57395;SDS011;43222;52.912;6.940;2023-05-07T12:39:37;15.63;;;13.93;;
57395;SDS011;43222;52.912;6.940;2023-05-07T12:42:04;16.17;;;14.30;;
57395;SDS011;43222;52.912;6.940;2023-05-07T12:44:32;16.38;;;14.68;;
57395;SDS011;43222;52.912;6.940;2023-05-07T12:47:01;14.77;;;13.25;;
57395;SDS011;43222;52.912;6.940;2023-05-07T12:49:27;15.30;;;13.80;;
57395;SDS011;43222;52.912;6.940;2023-05-07T12:51:54;14.48;;;12.85;;
57395;SDS011;43222;52.912;6.940;2023-05-07T12:54:30;15.18;;;13.68;;
57395;SDS011;43222;52.912;6.940;2023-05-07T12:57:02;16.42;;;14.35;;
57395;SDS011;43222;52.912;6.940;2023-05-07T12:59:32;15.75;;;13.50;;
57395;SDS011;43222;52.912;6.940;2023-05-07T13:01:59;15.02;;;13.52;;
57395;SDS011;43222;52.912;6.940;2023-05-07T13:04:25;14.52;;;13.02;;
57395;SDS011;43222;52.912;6.940;2023-05-07T13:06:51;15.32;;;13.65;;
57395;SDS011;43222;52.912;6.940;2023-05-07T13:09:17;14.90;;;13.40;;
57395;SDS011;43222;52.912;6.940;2023-05-07T13:11:43;15.13;;;13.57;;
57395;SDS011;43222;52.912;6.940;2023-05-07T13:14:09;15.55;;;14.05;;
57395;SDS011;43222;52.912;6.940;2023-05-07T13:16:35;14.88;;;13.43;;
57395;SDS011;43222;52.912;6.940;2023-05-07T13:19:01;15.52;;;14.02;;
57395;SDS011;43222;52.912;6.940;2023-05-07T13:21:27;15.45;;;13.95;;
57395;SDS011;43222;52.912;6.940;2023-05-07T13:23:53;14.95;;;13.35;;
57395;SDS011;43222;52.912;6.940;2023-05-07T13:26:19;14.77;;;13.25;;
57395;SDS011;43222;52.912;6.940;2023-05-07T13:28:45;15.10;;;13.70;;
57395;SDS011;43222;52.912;6.940;2023-05-07T13:31:11;14.60;;;13.20;;
57395;SDS011;43222;52.912;6.940;2023-05-07T13:33:37;14.38;;;12.88;;
57395;SDS011;43222;52.912;6.940;2023-05-07T13:36:03;15.43;;;13.93;;
57395;SDS011;43222;52.912;6.940;2023-05-07T13:38:30;15.73;;;13.98;;
57395;SDS011;43222;52.912;6.940;2023-05-07T13:40:56;14.65;;;13.27;;
57395;SDS011;43222;52.912;6.940;2023-05-07T13:43:22;15.05;;;12.75;;
57395;SDS011;43222;52.912;6.940;2023-05-07T13:45:48;12.20;;;11.00;;
57395;SDS011;43222;52.912;6.940;2023-05-07T13:48:14;13.60;;;11.25;;
57395;SDS011;43222;52.912;6.940;2023-05-07T13:50:40;13.43;;;12.13;;
57395;SDS011;43222;52.912;6.940;2023-05-07T13:53:07;14.15;;;12.80;;
57395;SDS011;43222;52.912;6.940;2023-05-07T13:55:33;13.55;;;12.25;;
57395;SDS011;43222;52.912;6.940;2023-05-07T13:58:00;13.18;;;11.85;;
57395;SDS011;43222;52.912;6.940;2023-05-07T14:00:26;14.35;;;12.95;;
57395;SDS011;43222;52.912;6.940;2023-05-07T14:02:53;12.93;;;11.52;;
57395;SDS011;43222;52.912;6.940;2023-05-07T14:05:19;13.20;;;11.90;;
57395;SDS011;43222;52.912;6.940;2023-05-07T14:07:48;13.63;;;12.10;;
57395;SDS011;43222;52.912;6.940;2023-05-07T14:10:16;13.80;;;12.43;;
57395;SDS011;43222;52.912;6.940;2023-05-07T14:12:43;14.50;;;12.85;;
57395;SDS011;43222;52.912;6.940;2023-05-07T14:15:09;14.38;;;12.98;;
57395;SDS011;43222;52.912;6.940;2023-05-07T14:17:35;14.60;;;13.10;;
57395;SDS011;43222;52.912;6.940;2023-05-07T14:20:01;14.48;;;12.80;;
57395;SDS011;43222;52.912;6.940;2023-05-07T14:22:28;14.93;;;13.38;;
57395;SDS011;43222;52.912;6.940;2023-05-07T14:24:53;14.50;;;13.00;;
57395;SDS011;43222;52.912;6.940;2023-05-07T14:27:20;14.70;;;13.30;;
57395;SDS011;43222;52.912;6.940;2023-05-07T14:29:46;14.77;;;13.27;;
57395;SDS011;43222;52.912;6.940;2023-05-07T14:32:16;14.45;;;12.95;;
57395;SDS011;43222;52.912;6.940;2023-05-07T14:34:42;14.80;;;13.20;;